Time;durP1;ratioP1;P1;durP2;ratioP2;P2;SDS_P1;SDS_P2;PMS_P1;PMS_P2;Temp;Humidity;BMP_temperature;BMP_pressure;BME280_temperature;BME280_humidity;BME280_pressure;Samples;Min_cycle;Max_cycle;Signal;HPM_P1;HPM_P2
2024/03/18 00:02:53;;;;;;;12.75;8.98;;;;;;;12.94;100.00;101084.13;10450401;28;20511;-76
2024/03/18 00:08:16;;;;;;;14.65;8.88;;;;;;;12.84;100.00;101076.97;10467076;28;20074;-76
2024/03/18 00:13:38;;;;;;;19.45;9.10;;;;;;;12.84;100.00;101074.31;10435763;28;20044;-77
2024/03/18 00:19:03;;;;;;;12.52;8.55;;;;;;;12.85;100.00;101069.91;10449348;28;20045;-77
2024/03/18 00:24:26;;;;;;;17.67;8.60;;;;;;;12.87;100.00;101066.38;10449134;28;20041;-77
2024/03/18 00:29:48;;;;;;;14.98;8.63;;;;;;;12.76;100.00;101063.63;10449822;28;20059;-77
2024/03/18 00:35:13;;;;;;;13.30;8.43;;;;;;;12.82;100.00;101057.50;10448910;28;20049;-76
2024/03/18 00:40:36;;;;;;;10.65;7.35;;;;;;;12.78;100.00;101053.94;10449152;28;20056;-75
2024/03/18 00:45:58;;;;;;;11.82;7.93;;;;;;;12.93;100.00;101047.03;10447930;28;20044;-76
2024/03/18 00:51:22;;;;;;;12.80;8.55;;;;;;;13.18;100.00;101043.78;10446554;28;20052;-76
2024/03/18 00:56:46;;;;;;;17.27;7.95;;;;;;;13.19;100.00;101032.31;10472965;28;20044;-76
2024/03/18 01:02:08;;;;;;;16.52;8.88;;;;;;;13.42;100.00;101044.00;10447564;28;20110;-76
2024/03/18 01:07:33;;;;;;;17.20;8.13;;;;;;;13.76;100.00;101028.34;10448277;28;20098;-76
2024/03/18 01:12:55;;;;;;;13.43;7.88;;;;;;;14.05;100.00;101032.03;10438431;28;20076;-77
2024/03/18 01:18:18;;;;;;;13.55;7.90;;;;;;;14.25;100.00;101021.53;10447508;28;20064;-76
2024/03/18 01:23:42;;;;;;;14.13;7.75;;;;;;;14.25;100.00;101022.41;10446305;28;20101;-75
2024/03/18 01:29:05;;;;;;;10.98;7.43;;;;;;;14.15;100.00;101017.97;10445179;28;20051;-76
2024/03/18 01:34:27;;;;;;;13.52;8.38;;;;;;;14.02;100.00;101008.16;10447145;28;20571;-76
2024/03/18 01:39:51;;;;;;;14.77;8.55;;;;;;;13.88;100.00;101008.06;10447862;28;20044;-76
2024/03/18 01:45:22;;;;;;;13.05;7.60;;;;;;;13.94;100.00;101002.81;10432950;28;20520;-75
2024/03/18 01:50:47;;;;;;;13.00;7.95;;;;;;;14.02;100.00;101000.19;10445302;28;20076;-76
2024/03/18 01:56:11;;;;;;;11.63;8.00;;;;;;;14.03;100.00;101001.97;10445324;28;20087;-76
2024/03/18 02:01:33;;;;;;;13.68;7.93;;;;;;;13.98;100.00;101001.94;10432028;28;20055;-75
2024/03/18 02:06:56;;;;;;;14.93;7.93;;;;;;;14.04;100.00;101005.53;10438532;28;20083;-76
2024/03/18 02:12:21;;;;;;;12.52;7.97;;;;;;;14.16;100.00;100994.97;10440676;28;20076;-76
2024/03/18 02:17:43;;;;;;;17.33;9.10;;;;;;;14.00;100.00;101001.94;10471136;28;20051;-76
2024/03/18 02:23:09;;;;;;;13.57;7.72;;;;;;;14.10;100.00;100997.59;10466558;28;20053;-76
2024/03/18 02:28:31;;;;;;;13.10;8.13;;;;;;;14.18;100.00;100993.16;10468513;28;20053;-76
2024/03/18 02:33:54;;;;;;;11.65;7.50;;;;;;;13.99;100.00;101000.16;10472949;28;20059;-76
2024/03/18 02:39:18;;;;;;;13.35;7.78;;;;;;;13.89;100.00;101003.66;10482408;28;20515;-76
2024/03/18 02:44:41;;;;;;;16.67;8.27;;;;;;;13.99;100.00;100997.50;10454409;28;20075;-76
2024/03/18 02:50:03;;;;;;;15.80;8.57;;;;;;;13.88;100.00;100994.81;10479020;28;20049;-76
2024/03/18 02:55:27;;;;;;;13.48;8.48;;;;;;;13.86;100.00;100993.91;10442972;28;20051;-75
2024/03/18 03:00:52;;;;;;;13.93;8.18;;;;;;;13.70;100.00;100991.16;10464538;28;20057;-75
2024/03/18 03:06:15;;;;;;;13.85;8.30;;;;;;;13.62;100.00;100992.88;10452636;28;20452;-75
2024/03/18 03:11:39;;;;;;;15.27;8.27;;;;;;;13.63;100.00;100987.56;10440323;28;20048;-75
2024/03/18 03:17:01;;;;;;;15.80;8.32;;;;;;;13.76;100.00;100980.59;10434590;28;20068;-75
2024/03/18 03:22:24;;;;;;;13.18;8.25;;;;;;;13.71;100.00;100985.88;10451343;28;20090;-75
2024/03/18 03:27:48;;;;;;;12.25;8.20;;;;;;;13.55;100.00;100979.56;10451548;28;20556;-75
2024/03/18 03:33:12;;;;;;;15.48;8.20;;;;;;;13.49;100.00;100987.47;10450860;28;20049;-76
2024/03/18 03:38:35;;;;;;;18.85;8.40;;;;;;;13.64;100.00;100991.13;10451939;28;20049;-75
2024/03/18 03:43:59;;;;;;;16.95;8.82;;;;;;;13.55;100.00;100982.22;10450563;28;20098;-75
2024/03/18 03:49:21;;;;;;;12.88;7.55;;;;;;;13.48;100.00;100975.09;10448592;28;20041;-75
2024/03/18 03:54:44;;;;;;;14.77;7.97;;;;;;;13.44;100.00;100977.72;10458451;28;20049;-74
2024/03/18 04:00:11;;;;;;;14.32;8.95;;;;;;;13.43;100.00;100976.84;10448698;28;20457;-75
2024/03/18 04:05:36;;;;;;;12.20;7.60;;;;;;;13.45;100.00;100979.50;10448207;28;20583;-75
2024/03/18 04:10:59;;;;;;;15.73;8.57;;;;;;;13.36;100.00;100982.06;10463423;28;20095;-75
2024/03/18 04:16:23;;;;;;;9.65;7.60;;;;;;;13.47;100.00;100986.56;10449300;28;20656;-76
2024/03/18 04:21:46;;;;;;;12.65;7.75;;;;;;;13.56;100.00;100978.69;10449442;28;20147;-76
2024/03/18 04:27:08;;;;;;;12.48;7.63;;;;;;;13.45;100.00;100975.09;10449237;28;20045;-74
2024/03/18 04:32:32;;;;;;;15.45;8.18;;;;;;;13.48;100.00;100975.09;10448387;28;20086;-75
2024/03/18 04:37:55;;;;;;;12.55;8.35;;;;;;;13.64;100.00;100972.56;10448783;28;20140;-76
2024/03/18 04:43:18;;;;;;;13.90;7.95;;;;;;;13.75;100.00;100984.09;10424774;28;20044;-76
2024/03/18 04:48:43;;;;;;;13.48;7.85;;;;;;;13.96;100.00;100979.81;10442141;28;20055;-75
2024/03/18 04:54:06;;;;;;;14.35;7.97;;;;;;;14.45;100.00;100979.16;10445618;28;20052;-76
2024/03/18 04:59:28;;;;;;;13.35;8.43;;;;;;;14.58;100.00;100986.28;10432338;28;20045;-76
2024/03/18 05:04:53;;;;;;;11.02;8.18;;;;;;;15.01;100.00;100979.28;10433254;28;20514;-76
2024/03/18 05:10:21;;;;;;;13.43;7.45;;;;;;;15.29;100.00;100989.06;10462710;28;20052;-76
2024/03/18 05:15:43;;;;;;;10.75;6.55;;;;;;;15.62;100.00;100988.16;10423872;28;20094;-76
2024/03/18 05:21:07;;;;;;;12.75;7.75;;;;;;;15.82;100.00;100997.00;10433227;28;20075;-76
2024/03/18 05:26:30;;;;;;;12.52;7.43;;;;;;;16.24;100.00;100989.78;10457340;28;20086;-76
2024/03/18 05:31:53;;;;;;;10.60;7.18;;;;;;;16.38;100.00;100985.28;10446726;28;20037;-77
2024/03/18 05:37:17;;;;;;;13.48;7.60;;;;;;;16.56;100.00;100993.19;10461698;28;20173;-76
2024/03/18 05:42:40;;;;;;;13.77;7.30;;;;;;;16.73;100.00;100993.13;10482137;28;20491;-75
2024/03/18 05:48:02;;;;;;;15.30;7.18;;;;;;;17.79;100.00;100983.38;10456053;28;20049;-75
2024/03/18 05:53:26;;;;;;;9.18;6.40;;;;;;;17.52;100.00;100996.06;10481299;28;20055;-76
2024/03/18 05:58:49;;;;;;;11.52;6.80;;;;;;;17.44;100.00;100997.06;10454456;28;20049;-76
2024/03/18 06:04:12;;;;;;;10.07;6.22;;;;;;;17.57;100.00;100988.03;10454723;28;20443;-76
2024/03/18 06:09:36;;;;;;;14.13;6.35;;;;;;;17.92;100.00;100999.25;10454123;28;20049;-76
2024/03/18 06:14:59;;;;;;;11.40;6.38;;;;;;;18.05;100.00;101002.69;10453738;28;20064;-77
2024/03/18 06:20:21;;;;;;;11.15;6.40;;;;;;;19.77;100.00;100995.75;10451097;28;20132;-75
2024/03/18 06:26:03;;;;;;;13.00;7.45;;;;;;;20.58;92.16;100995.03;10431406;28;20132;-75
2024/03/18 06:31:26;;;;;;;13.07;7.40;;;;;;;19.04;100.00;100999.63;10446969;28;20060;-76
2024/03/18 06:36:50;;;;;;;10.38;6.03;;;;;;;20.62;97.06;101004.78;10464321;28;20084;-75
2024/03/18 06:42:14;;;;;;;9.20;6.90;;;;;;;22.87;71.69;101003.38;10445264;28;20293;-76
2024/03/18 06:47:37;;;;;;;9.10;6.43;;;;;;;22.33;70.52;101014.81;10466216;28;20849;-76
2024/03/18 06:52:59;;;;;;;11.18;6.15;;;;;;;20.46;87.53;101016.75;10478531;28;20073;-76
2024/03/18 06:58:26;;;;;;;7.68;5.60;;;;;;;19.14;98.32;101028.94;10462590;28;20053;-76
2024/03/18 07:03:49;;;;;;;14.45;6.72;;;;;;;18.69;100.00;101026.00;10451032;28;20041;-76
2024/03/18 07:09:11;;;;;;;11.60;5.63;;;;;;;18.21;100.00;101033.69;10417554;28;20045;-76
2024/03/18 07:14:36;;;;;;;10.63;6.50;;;;;;;18.23;100.00;101033.69;10466168;28;20136;-76
2024/03/18 07:19:59;;;;;;;8.70;5.90;;;;;;;18.98;98.90;101026.47;10451739;28;20239;-76
2024/03/18 07:25:21;;;;;;;9.63;5.95;;;;;;;21.73;74.40;101033.47;10451849;28;20062;-76
2024/03/18 07:30:47;;;;;;;10.23;5.63;;;;;;;21.42;73.37;101041.44;10452217;28;20041;-76
2024/03/18 07:36:10;;;;;;;8.48;6.35;;;;;;;21.44;76.72;101039.59;10434100;28;20061;-76
2024/03/18 07:41:32;;;;;;;7.35;4.40;;;;;;;22.66;66.23;101032.66;10440811;28;20056;-76
2024/03/18 07:46:56;;;;;;;9.82;5.07;;;;;;;24.41;53.25;101043.06;10449584;28;20099;-75
2024/03/18 07:52:20;;;;;;;10.02;4.20;;;;;;;25.07;49.94;101044.16;10433271;28;20064;-76
2024/03/18 07:57:42;;;;;;;12.90;7.00;;;;;;;22.50;56.27;101052.91;10436248;28;20045;-76
2024/03/18 08:03:07;;;;;;;8.10;3.80;;;;;;;21.65;64.79;101051.63;10452530;28;20060;-76
2024/03/18 08:08:29;;;;;;;9.60;5.53;;;;;;;20.77;74.26;101059.91;10450778;28;20138;-77
2024/03/18 08:13:52;;;;;;;9.93;4.45;;;;;;;20.42;80.05;101052.59;10444852;28;20052;-76
2024/03/18 08:19:16;;;;;;;9.25;5.38;;;;;;;20.61;76.45;101051.28;10431107;28;20056;-74
2024/03/18 08:24:39;;;;;;;9.13;3.65;;;;;;;21.21;71.63;101050.00;10445576;28;20110;-76
2024/03/18 08:30:01;;;;;;;9.85;4.03;;;;;;;21.32;67.46;101042.59;10448033;28;20047;-75
2024/03/18 08:35:26;;;;;;;8.60;4.55;;;;;;;22.05;62.73;101044.31;10443946;28;20122;-76
2024/03/18 08:40:54;;;;;;;6.70;3.80;;;;;;;21.79;62.84;101044.94;10441641;28;20405;-76
2024/03/18 08:46:16;;;;;;;;;;;;;;;21.64;68.63;101060.59;10444488;28;20083;-77
2024/03/18 08:51:40;;;;;;;11.88;5.75;;;;;;;22.21;63.99;101048.34;10433526;28;19928;-75
2024/03/18 08:57:02;;;;;;;8.73;4.00;;;;;;;21.92;68.62;101048.22;10457730;28;20107;-75
2024/03/18 09:02:26;;;;;;;10.82;4.47;;;;;;;21.17;70.28;101041.16;10445388;28;20049;-75
2024/03/18 09:07:50;;;;;;;9.68;5.07;;;;;;;20.97;73.50;101046.06;10447839;28;20409;-75
2024/03/18 09:13:14;;;;;;;9.35;3.88;;;;;;;20.94;71.80;101049.69;10435630;28;20413;-74
2024/03/18 09:18:36;;;;;;;10.85;4.65;;;;;;;21.19;71.50;101051.84;10446062;28;20118;-75
2024/03/18 09:24:00;;;;;;;7.53;4.90;;;;;;;21.92;68.17;101050.03;10460834;28;20048;-76
2024/03/18 09:29:23;;;;;;;5.60;3.58;;;;;;;21.42;67.87;101042.31;10428591;28;20049;-76
2024/03/18 09:34:45;;;;;;;8.27;4.78;;;;;;;21.35;69.45;101035.31;10431435;28;20057;-75
2024/03/18 09:40:11;;;;;;;8.93;4.68;;;;;;;22.12;65.87;101036.97;10464337;28;20053;-75
2024/03/18 09:45:33;;;;;;;23.95;13.05;;;;;;;23.09;57.14;101017.06;10445254;28;20126;-74
2024/03/18 09:50:57;;;;;;;15.68;6.68;;;;;;;23.67;53.79;101022.31;10442803;28;20049;-75
2024/03/18 09:56:22;;;;;;;11.20;4.55;;;;;;;22.16;60.00;101014.44;10420757;28;20485;-75
2024/03/18 10:01:44;;;;;;;8.35;3.75;;;;;;;22.89;55.46;101007.78;10424450;28;20051;-75
2024/03/18 10:07:12;;;;;;;6.07;3.05;;;;;;;22.58;54.55;101006.91;10444668;28;20044;-75
2024/03/18 10:12:36;;;;;;;4.53;2.50;;;;;;;22.62;53.85;100992.44;10446364;28;20135;-75
2024/03/18 10:17:59;;;;;;;7.40;2.60;;;;;;;24.81;46.17;100998.34;10446584;28;20489;-75
2024/03/18 10:23:22;;;;;;;8.43;3.47;;;;;;;26.35;43.62;101001.72;10446952;28;20374;-75
2024/03/18 10:28:47;;;;;;;9.15;3.10;;;;;;;25.91;42.86;100990.16;10467579;28;20150;-74
2024/03/18 10:34:17;;;;;;;7.15;3.70;;;;;;;26.14;42.48;100984.59;10453159;28;20059;-75
2024/03/18 10:39:48;;;;;;;4.70;3.13;;;;;;;26.25;40.67;100994.09;10441068;28;20045;-75
2024/03/18 10:45:18;;;;;;;7.57;2.88;;;;;;;26.62;41.85;100990.56;10426618;28;20115;-75
2024/03/18 10:50:41;;;;;;;5.03;2.80;;;;;;;28.32;37.68;100980.09;10412374;28;20148;-76
2024/03/18 10:56:04;;;;;;;5.88;3.15;;;;;;;26.87;39.60;100975.75;10450145;28;20168;-75
2024/03/18 11:01:29;;;;;;;9.23;3.30;;;;;;;23.97;44.28;100976.31;10453363;28;20057;-75
2024/03/18 11:06:55;;;;;;;11.07;3.67;;;;;;;24.57;44.99;100968.66;10452077;28;20134;-75
2024/03/18 11:12:32;;;;;;;8.20;3.97;;;;;;;25.66;41.73;100959.72;10451748;28;20048;-75
2024/03/18 11:18:05;;;;;;;9.20;3.80;;;;;;;24.30;43.50;100968.81;10452730;28;20049;-75
2024/03/18 11:23:30;;;;;;;6.88;3.45;;;;;;;23.59;46.11;100931.84;10480975;28;20065;-75
2024/03/18 11:29:02;;;;;;;10.65;3.85;;;;;;;22.67;48.84;100939.34;10466542;28;20485;-75
2024/03/18 11:34:26;;;;;;;6.28;3.60;;;;;;;22.81;50.60;100929.06;10438631;28;20049;-76
2024/03/18 11:39:49;;;;;;;10.70;3.70;;;;;;;23.06;52.57;100931.81;10435554;28;20052;-75
2024/03/18 11:45:19;;;;;;;7.75;3.97;;;;;;;22.71;50.67;100919.47;10396807;28;20485;-75
2024/03/18 11:50:45;;;;;;;11.07;4.20;;;;;;;22.67;52.81;100907.03;10451800;28;20103;-75
2024/03/18 11:56:09;;;;;;;5.13;3.15;;;;;;;22.77;51.34;100900.50;10451114;28;20056;-75
2024/03/18 12:01:33;;;;;;;7.03;3.90;;;;;;;22.72;51.06;100879.97;10451203;28;20056;-74
2024/03/18 12:06:57;;;;;;;3.42;2.85;;;;;;;21.76;54.81;100882.88;10451348;28;20128;-75
2024/03/18 12:12:19;;;;;;;5.80;3.60;;;;;;;21.16;59.54;100880.06;10450640;28;20676;-74
2024/03/18 12:17:43;;;;;;;9.05;4.13;;;;;;;21.16;61.49;100878.25;10478915;28;20049;-75
2024/03/18 12:23:10;;;;;;;8.20;4.10;;;;;;;21.43;63.03;100864.09;10447649;28;20533;-75
2024/03/18 12:28:44;;;;;;;8.70;4.30;;;;;;;21.44;61.91;100873.94;10446279;28;20045;-75
2024/03/18 12:34:08;;;;;;;6.75;3.97;;;;;;;20.65;64.27;100861.63;10458453;28;20080;-75
2024/03/18 12:39:32;;;;;;;6.03;3.67;;;;;;;20.67;67.14;100855.31;10443212;28;20043;-75
2024/03/18 12:44:55;;;;;;;6.78;4.07;;;;;;;21.35;66.39;100863.41;10448725;28;20376;-76
2024/03/18 12:50:19;;;;;;;8.75;4.43;;;;;;;21.15;64.51;100864.84;10448231;28;20056;-75
2024/03/18 12:55:43;;;;;;;11.32;4.40;;;;;;;20.26;69.89;100869.66;10413214;28;20052;-77
2024/03/18 13:01:07;;;;;;;8.32;4.68;;;;;;;19.68;73.54;100869.13;10461853;28;20041;-76
2024/03/18 13:06:29;;;;;;;8.52;4.82;;;;;;;19.29;81.70;100871.63;10422488;28;20033;-76
2024/03/18 13:11:57;;;;;;;11.73;5.78;;;;;;;19.60;85.56;100858.56;10411573;28;20102;-75
2024/03/18 13:17:25;;;;;;;13.02;5.07;;;;;;;19.94;82.89;100855.19;10430863;28;20096;-76
2024/03/18 13:22:49;;;;;;;9.45;4.82;;;;;;;20.20;78.79;100850.16;10416930;28;20053;-76
2024/03/18 13:28:13;;;;;;;10.07;5.43;;;;;;;19.80;80.96;100821.53;10415028;28;20110;-77
2024/03/18 13:33:36;;;;;;;11.00;4.95;;;;;;;19.73;83.28;100837.78;10439648;28;20607;-75
2024/03/18 13:39:00;;;;;;;10.32;4.90;;;;;;;19.97;79.79;100847.06;10439911;28;20489;-76
2024/03/18 13:44:25;;;;;;;7.97;4.55;;;;;;;20.46;77.06;100834.38;10440391;28;20068;-74
2024/03/18 13:49:48;;;;;;;10.55;4.75;;;;;;;20.68;74.32;100843.66;10446195;28;20756;-75
2024/03/18 13:55:14;;;;;;;9.77;4.93;;;;;;;20.80;72.36;100836.22;10458221;28;20056;-73
2024/03/18 14:00:38;;;;;;;8.70;4.68;;;;;;;20.80;70.02;100839.81;10428365;28;20060;-75
2024/03/18 14:06:01;;;;;;;7.15;4.50;;;;;;;20.63;69.16;100848.25;10453657;28;20140;-74
2024/03/18 14:11:24;;;;;;;9.93;4.90;;;;;;;20.17;71.72;100840.38;10451215;28;20130;-74
2024/03/18 14:16:48;;;;;;;9.82;5.55;;;;;;;20.03;75.07;100833.53;10433638;28;20058;-75
2024/03/18 14:22:11;;;;;;;9.88;5.05;;;;;;;20.07;76.76;100828.09;10434042;28;20047;-75
2024/03/18 14:27:33;;;;;;;8.13;4.47;;;;;;;20.13;74.41;100835.13;10442806;28;20044;-75
2024/03/18 14:32:57;;;;;;;7.00;4.75;;;;;;;19.74;73.62;100836.88;10443893;28;20049;-75
2024/03/18 14:38:20;;;;;;;8.77;5.05;;;;;;;19.43;73.79;100840.09;10448961;28;20053;-76
2024/03/18 14:43:42;;;;;;;9.60;5.00;;;;;;;19.27;77.31;100838.66;10447073;28;20542;-76
2024/03/18 14:49:06;;;;;;;8.27;5.72;;;;;;;18.95;79.79;100841.91;10452071;28;20041;-76
2024/03/18 14:54:29;;;;;;;9.43;5.45;;;;;;;18.55;82.87;100851.47;10448125;28;20520;-77
2024/03/18 14:59:52;;;;;;;12.27;6.05;;;;;;;18.15;81.60;100840.47;10450183;28;20413;-74
2024/03/18 15:05:17;;;;;;;12.15;6.30;;;;;;;17.95;84.52;100853.22;10469466;28;20501;-75
2024/03/18 15:10:39;;;;;;;11.18;5.88;;;;;;;17.63;88.96;100848.28;10421977;28;20489;-75
2024/03/18 15:16:03;;;;;;;10.55;6.65;;;;;;;17.24;92.97;100850.47;10443542;28;20056;-74
2024/03/18 15:21:27;;;;;;;10.10;6.72;;;;;;;17.30;94.45;100866.41;10465283;28;20102;-74
2024/03/18 15:32:30;;;;;;;10.45;6.45;;;;;;;17.12;100.00;100864.81;10453537;28;20102;-74
2024/03/18 15:37:54;;;;;;;13.38;7.65;;;;;;;17.21;100.00;100863.81;10435808;28;20051;-74
2024/03/18 15:43:17;;;;;;;12.32;7.28;;;;;;;17.10;100.00;100871.94;10424203;28;20048;-75
2024/03/18 15:48:39;;;;;;;12.00;7.22;;;;;;;16.95;100.00;100874.75;10445978;28;20049;-75
2024/03/18 15:54:03;;;;;;;13.65;6.50;;;;;;;16.67;100.00;100878.53;10477716;28;20131;-76
2024/03/18 15:59:26;;;;;;;12.90;7.22;;;;;;;16.55;100.00;100874.13;10443678;28;20044;-77
2024/03/18 16:04:50;;;;;;;16.33;7.35;;;;;;;16.43;100.00;100879.53;10448528;28;20540;-75
2024/03/18 16:10:18;;;;;;;11.57;7.63;;;;;;;16.25;100.00;100874.34;10447596;28;20052;-75
2024/03/18 16:15:41;;;;;;;;;;;;;;;16.19;100.00;100866.38;10419302;28;20065;-75
2024/03/18 16:21:03;;;;;;;11.30;6.90;;;;;;;15.91;100.00;100878.94;10446758;28;19967;-74
2024/03/18 16:26:27;;;;;;;12.50;7.93;;;;;;;15.75;100.00;100883.44;10429413;28;20048;-75
2024/03/18 16:31:50;;;;;;;12.48;8.27;;;;;;;15.79;100.00;100881.66;10447835;28;20443;-75
2024/03/18 16:37:12;;;;;;;10.85;7.60;;;;;;;15.81;100.00;100882.56;10445832;28;20059;-76
2024/03/18 16:42:36;;;;;;;11.45;7.43;;;;;;;15.90;100.00;100882.50;10438880;28;20127;-75
2024/03/18 16:47:59;;;;;;;32.67;20.75;;;;;;;15.69;100.00;100895.88;10422419;28;20533;-75
2024/03/18 16:53:21;;;;;;;60.90;32.17;;;;;;;15.64;100.00;100901.22;10438033;28;20551;-73
2024/03/18 16:58:46;;;;;;;25.10;19.33;;;;;;;15.66;100.00;100899.47;10446826;28;20510;-74
2024/03/18 17:04:08;;;;;;;16.10;10.90;;;;;;;15.70;100.00;100885.22;10447366;28;20103;-76
2024/03/18 17:09:31;;;;;;;17.25;9.30;;;;;;;15.94;100.00;100890.47;10445700;28;20116;-76
2024/03/18 17:14:56;;;;;;;13.85;9.30;;;;;;;15.95;100.00;100889.56;10443583;28;20056;-76
2024/03/18 17:20:20;;;;;;;34.55;21.42;;;;;;;15.84;100.00;100899.38;10440260;28;20508;-74
2024/03/18 17:25:42;;;;;;;12.35;7.80;;;;;;;15.77;100.00;100905.63;10431105;28;20036;-75
2024/03/18 17:31:09;;;;;;;16.80;11.52;;;;;;;15.66;100.00;100910.09;10449436;28;20041;-75
2024/03/18 17:36:31;;;;;;;22.10;13.90;;;;;;;15.71;100.00;100908.31;10411348;28;20056;-75
2024/03/18 17:41:54;;;;;;;17.63;11.90;;;;;;;15.97;100.00;100902.00;10435062;28;20072;-74
2024/03/18 17:47:18;;;;;;;17.77;12.75;;;;;;;15.86;100.00;100926.91;10444428;28;20052;-75
2024/03/18 17:52:41;;;;;;;21.83;14.95;;;;;;;15.70;100.00;100930.47;10445761;28;20045;-75
2024/03/18 17:58:03;;;;;;;37.20;31.65;;;;;;;15.78;100.00;100941.13;10439675;28;20716;-75
2024/03/18 18:03:28;;;;;;;17.90;14.52;;;;;;;15.74;100.00;100936.69;10449601;28;20132;-74
2024/03/18 18:08:50;;;;;;;15.50;12.30;;;;;;;15.75;100.00;100943.81;10450129;28;20389;-74
2024/03/18 18:14:14;;;;;;;18.80;12.52;;;;;;;15.62;100.00;100945.56;10434769;28;20467;-73
2024/03/18 18:19:38;;;;;;;22.95;16.30;;;;;;;15.82;100.00;100956.16;10446221;28;20110;-74
2024/03/18 18:25:01;;;;;;;17.30;10.18;;;;;;;15.88;100.00;100956.19;10443571;28;20048;-75
2024/03/18 18:30:23;;;;;;;13.90;10.77;;;;;;;15.75;100.00;100973.09;10448652;28;20106;-75
2024/03/18 18:35:47;;;;;;;10.75;9.50;;;;;;;15.65;100.00;100981.94;10446476;28;20056;-74
2024/03/18 18:41:11;;;;;;;14.40;11.50;;;;;;;15.59;100.00;100969.56;10448997;28;20051;-74
2024/03/18 18:46:33;;;;;;;11.85;9.48;;;;;;;15.68;100.00;100981.97;10439283;28;20049;-74
2024/03/18 18:51:58;;;;;;;12.25;10.15;;;;;;;15.74;100.00;100980.19;10434798;28;20417;-75
2024/03/18 18:57:20;;;;;;;12.27;10.43;;;;;;;15.87;100.00;100981.91;10453998;28;20061;-75
2024/03/18 19:02:43;;;;;;;13.82;8.50;;;;;;;15.97;100.00;100989.88;10455620;28;20041;-75
2024/03/18 19:08:08;;;;;;;13.45;9.20;;;;;;;15.76;100.00;100986.34;10455270;28;20052;-75
2024/03/18 19:13:31;;;;;;;14.82;10.13;;;;;;;15.78;100.00;100986.38;10453844;28;20077;-77
2024/03/18 19:18:54;;;;;;;10.85;8.63;;;;;;;15.72;100.00;101005.91;10452219;28;20049;-77
2024/03/18 19:24:18;;;;;;;14.60;10.85;;;;;;;15.67;100.00;101006.81;10454757;28;20047;-74
2024/03/18 19:29:41;;;;;;;12.07;8.70;;;;;;;15.62;100.00;101012.09;10455407;28;20110;-76
2024/03/18 19:35:04;;;;;;;22.88;18.92;;;;;;;15.68;100.00;101014.78;10451287;28;20056;-76
2024/03/18 19:40:29;;;;;;;12.18;7.47;;;;;;;15.90;100.00;101005.84;10441028;28;20048;-76
2024/03/18 19:45:51;;;;;;;20.75;14.32;;;;;;;15.80;100.00;101012.09;10450773;28;20493;-75
2024/03/18 19:51:14;;;;;;;10.13;8.95;;;;;;;15.57;100.00;101016.56;10450598;28;20053;-76
2024/03/18 19:56:38;;;;;;;14.13;9.57;;;;;;;15.25;100.00;101015.63;10435767;28;20477;-76
2024/03/18 20:02:01;;;;;;;16.98;11.38;;;;;;;15.22;100.00;101013.00;10422477;28;20045;-76
2024/03/18 20:07:24;;;;;;;15.38;11.20;;;;;;;15.05;100.00;101013.84;10448435;28;20049;-76
2024/03/18 20:12:48;;;;;;;24.70;17.55;;;;;;;14.88;100.00;101020.03;10447206;28;20065;-75
2024/03/18 20:18:10;;;;;;;21.58;15.18;;;;;;;14.85;100.00;101010.25;10432981;28;20052;-76
2024/03/18 20:23:33;;;;;;;18.60;12.70;;;;;;;14.78;100.00;101005.81;10478088;28;20625;-76
2024/03/18 20:28:57;;;;;;;18.75;16.55;;;;;;;14.75;100.00;101008.50;10439768;28;20040;-76
2024/03/18 20:34:19;;;;;;;20.88;14.75;;;;;;;14.68;100.00;101001.38;10453491;28;20053;-75
2024/03/18 20:39:42;;;;;;;21.13;15.10;;;;;;;14.84;100.00;100992.53;10450004;28;20049;-77
2024/03/18 20:45:08;;;;;;;22.20;17.52;;;;;;;14.72;100.00;100993.41;10463117;28;20056;-77
2024/03/18 20:50:31;;;;;;;65.40;41.58;;;;;;;14.73;100.00;100983.66;10412288;28;20053;-78
2024/03/18 20:55:54;;;;;;;31.67;22.85;;;;;;;14.94;100.00;100975.75;10447937;28;20053;-76
2024/03/18 21:01:20;;;;;;;24.80;15.55;;;;;;;14.70;100.00;100973.06;10433422;28;20098;-76
2024/03/18 21:06:42;;;;;;;16.83;13.27;;;;;;;14.60;100.00;100966.81;10442576;28;20059;-77
2024/03/18 21:12:07;;;;;;;21.38;13.02;;;;;;;14.52;100.00;100949.06;10442518;28;20595;-77
2024/03/18 21:17:31;;;;;;;20.27;12.85;;;;;;;14.51;100.00;100941.97;10434038;28;20110;-78
2024/03/18 21:22:53;;;;;;;14.73;11.57;;;;;;;14.35;100.00;100938.38;10448202;28;20049;-76
2024/03/18 21:28:16;;;;;;;13.65;10.75;;;;;;;14.33;100.00;100926.84;10447788;28;20053;-77
2024/03/18 21:33:40;;;;;;;13.20;9.40;;;;;;;14.46;100.00;100954.38;10434436;28;20052;-77
2024/03/18 21:39:03;;;;;;;14.00;10.13;;;;;;;14.54;100.00;100956.16;10430511;28;20057;-77
2024/03/18 21:44:26;;;;;;;17.98;11.82;;;;;;;14.45;100.00;100942.84;10416848;28;20576;-77
2024/03/18 21:49:50;;;;;;;19.60;12.07;;;;;;;14.27;100.00;100933.03;10447814;28;20041;-76
2024/03/18 21:55:12;;;;;;;24.95;18.55;;;;;;;14.25;100.00;100924.16;10461582;28;20051;-77
2024/03/18 22:00:35;;;;;;;17.40;12.10;;;;;;;14.12;100.00;100922.34;10460577;28;20056;-77
2024/03/18 22:05:59;;;;;;;15.85;13.45;;;;;;;14.04;100.00;100909.97;10431086;28;20061;-75
2024/03/18 22:11:21;;;;;;;13.68;10.35;;;;;;;14.04;100.00;100916.16;10432930;28;20049;-75
2024/03/18 22:16:44;;;;;;;15.48;12.18;;;;;;;13.96;100.00;100931.16;10458360;28;20041;-77
2024/03/18 22:22:08;;;;;;;11.90;9.13;;;;;;;14.07;100.00;100920.56;10459455;28;20053;-77
2024/03/18 22:27:30;;;;;;;15.55;9.38;;;;;;;14.00;100.00;100906.38;10454121;28;20048;-77
2024/03/18 22:32:53;;;;;;;12.10;8.65;;;;;;;14.05;100.00;100909.94;10454627;28;20045;-76
2024/03/18 22:38:17;;;;;;;13.40;10.30;;;;;;;13.93;100.00;100908.13;10454031;28;20095;-76
2024/03/18 22:43:41;;;;;;;25.60;18.17;;;;;;;13.75;100.00;100901.84;10438770;28;20049;-77
2024/03/18 22:49:04;;;;;;;14.15;11.35;;;;;;;13.72;100.00;100896.56;10466918;28;20053;-77
2024/03/18 22:54:28;;;;;;;13.15;10.68;;;;;;;13.63;100.00;100893.84;10440141;28;20051;-77
2024/03/18 22:59:52;;;;;;;14.20;10.70;;;;;;;13.42;100.00;100889.31;10451880;28;20049;-77
2024/03/18 23:05:15;;;;;;;11.45;9.52;;;;;;;13.46;100.00;100891.97;10481160;28;20099;-77
2024/03/18 23:10:39;;;;;;;12.82;9.73;;;;;;;13.47;100.00;100890.22;10465932;28;20040;-76
2024/03/18 23:16:03;;;;;;;13.35;11.35;;;;;;;13.61;100.00;100883.22;10438340;28;20492;-77
2024/03/18 23:21:25;;;;;;;10.82;8.93;;;;;;;13.80;100.00;100884.19;10438900;28;20127;-76
2024/03/18 23:26:49;;;;;;;12.45;9.25;;;;;;;13.62;100.00;100870.84;10439152;28;20053;-77
2024/03/18 23:32:12;;;;;;;11.52;9.13;;;;;;;13.54;100.00;100860.19;10453095;28;20067;-77
2024/03/18 23:37:36;;;;;;;11.05;9.25;;;;;;;13.52;100.00;100854.00;10452657;28;20060;-76
2024/03/18 23:43:00;;;;;;;9.73;8.73;;;;;;;13.46;100.00;100853.94;10425048;28;20073;-77
2024/03/18 23:48:23;;;;;;;10.85;9.23;;;;;;;13.35;100.00;100861.84;10446013;28;20045;-76
2024/03/18 23:53:46;;;;;;;12.73;10.73;;;;;;;13.49;100.00;100846.03;10480259;28;20048;-77
2024/03/18 23:59:10;;;;;;;17.20;13.40;;;;;;;13.50;100.00;100843.38;10437410;28;20055;-77
